sensor_id;sensor_type;location;lat;lon;timestamp;temperature;humidity
2447;DHT22;26430;48.818;9.244;2023-08-08T00:01:48;14.10;99.90
2447;DHT22;26430;48.818;9.244;2023-08-08T00:04:14;14.00;99.90
2447;DHT22;26430;48.818;9.244;2023-08-08T00:06:40;14.00;99.90
2447;DHT22;26430;48.818;9.244;2023-08-08T00:09:05;13.80;99.90
2447;DHT22;26430;48.818;9.244;2023-08-08T00:11:32;13.80;99.90
2447;DHT22;26430;48.818;9.244;2023-08-08T00:13:57;13.90;99.90
2447;DHT22;26430;48.818;9.244;2023-08-08T00:16:23;13.80;99.90
2447;DHT22;26430;48.818;9.244;2023-08-08T00:18:49;13.80;99.90
2447;DHT22;26430;48.818;9.244;2023-08-08T00:21:16;13.90;99.90
2447;DHT22;26430;48.818;9.244;2023-08-08T00:23:42;13.90;99.90
2447;DHT22;26430;48.818;9.244;2023-08-08T00:26:07;13.90;99.90
2447;DHT22;26430;48.818;9.244;2023-08-08T00:28:33;14.00;99.90
2447;DHT22;26430;48.818;9.244;2023-08-08T00:30:59;14.00;99.90
2447;DHT22;26430;48.818;9.244;2023-08-08T00:33:24;14.00;99.90
2447;DHT22;26430;48.818;9.244;2023-08-08T00:35:50;14.10;99.90
2447;DHT22;26430;48.818;9.244;2023-08-08T00:38:16;14.10;99.90
2447;DHT22;26430;48.818;9.244;2023-08-08T00:40:43;14.10;99.90
2447;DHT22;26430;48.818;9.244;2023-08-08T00:43:09;14.10;99.90
2447;DHT22;26430;48.818;9.244;2023-08-08T00:45:34;14.20;99.90
2447;DHT22;26430;48.818;9.244;2023-08-08T00:48:00;14.10;99.90
2447;DHT22;26430;48.818;9.244;2023-08-08T00:50:26;14.20;99.90
2447;DHT22;26430;48.818;9.244;2023-08-08T00:52:52;14.10;99.90
2447;DHT22;26430;48.818;9.244;2023-08-08T00:55:18;14.20;99.90
2447;DHT22;26430;48.818;9.244;2023-08-08T00:57:44;14.10;99.90
2447;DHT22;26430;48.818;9.244;2023-08-08T01:00:10;14.20;99.90
2447;DHT22;26430;48.818;9.244;2023-08-08T01:02:37;14.10;99.90
2447;DHT22;26430;48.818;9.244;2023-08-08T01:05:03;14.20;99.90
2447;DHT22;26430;48.818;9.244;2023-08-08T01:07:36;14.20;99.90
2447;DHT22;26430;48.818;9.244;2023-08-08T01:10:11;14.20;99.90
2447;DHT22;26430;48.818;9.244;2023-08-08T01:12:46;14.20;99.90
2447;DHT22;26430;48.818;9.244;2023-08-08T01:15:13;14.20;99.90
2447;DHT22;26430;48.818;9.244;2023-08-08T01:17:39;14.30;99.90
2447;DHT22;26430;48.818;9.244;2023-08-08T01:20:07;14.30;99.90
2447;DHT22;26430;48.818;9.244;2023-08-08T01:22:39;14.30;99.90
2447;DHT22;26430;48.818;9.244;2023-08-08T01:25:08;14.30;99.90
2447;DHT22;26430;48.818;9.244;2023-08-08T01:27:35;14.40;99.90
2447;DHT22;26430;48.818;9.244;2023-08-08T01:30:01;14.30;99.90
2447;DHT22;26430;48.818;9.244;2023-08-08T01:32:26;14.30;99.90
2447;DHT22;26430;48.818;9.244;2023-08-08T01:34:52;14.30;99.90
2447;DHT22;26430;48.818;9.244;2023-08-08T01:37:20;14.30;99.90
2447;DHT22;26430;48.818;9.244;2023-08-08T01:39:48;14.30;99.90
2447;DHT22;26430;48.818;9.244;2023-08-08T01:42:16;14.30;99.90
2447;DHT22;26430;48.818;9.244;2023-08-08T01:44:43;14.30;99.90
2447;DHT22;26430;48.818;9.244;2023-08-08T01:47:09;14.30;99.90
2447;DHT22;26430;48.818;9.244;2023-08-08T01:49:35;14.30;99.90
2447;DHT22;26430;48.818;9.244;2023-08-08T01:52:00;14.20;99.90
2447;DHT22;26430;48.818;9.244;2023-08-08T01:54:26;14.30;99.90
2447;DHT22;26430;48.818;9.244;2023-08-08T01:56:52;14.30;99.90
2447;DHT22;26430;48.818;9.244;2023-08-08T01:59:17;14.30;99.90
2447;DHT22;26430;48.818;9.244;2023-08-08T02:01:43;14.30;99.90
2447;DHT22;26430;48.818;9.244;2023-08-08T02:04:09;14.30;99.90
2447;DHT22;26430;48.818;9.244;2023-08-08T02:06:34;14.30;99.90
2447;DHT22;26430;48.818;9.244;2023-08-08T02:09:00;14.30;99.90
2447;DHT22;26430;48.818;9.244;2023-08-08T02:11:25;14.30;99.90
2447;DHT22;26430;48.818;9.244;2023-08-08T02:13:51;14.30;99.90
2447;DHT22;26430;48.818;9.244;2023-08-08T02:16:16;14.30;99.90
2447;DHT22;26430;48.818;9.244;2023-08-08T02:18:42;14.40;99.90
2447;DHT22;26430;48.818;9.244;2023-08-08T02:21:08;14.40;99.90
2447;DHT22;26430;48.818;9.244;2023-08-08T02:23:34;14.30;99.90
2447;DHT22;26430;48.818;9.244;2023-08-08T02:26:00;14.30;99.90
2447;DHT22;26430;48.818;9.244;2023-08-08T02:28:25;14.30;99.90
2447;DHT22;26430;48.818;9.244;2023-08-08T02:30:51;14.30;99.90
2447;DHT22;26430;48.818;9.244;2023-08-08T02:33:17;14.40;99.90
2447;DHT22;26430;48.818;9.244;2023-08-08T02:35:42;14.30;99.90
2447;DHT22;26430;48.818;9.244;2023-08-08T02:38:08;14.30;99.90
2447;DHT22;26430;48.818;9.244;2023-08-08T02:40:34;14.20;99.90
2447;DHT22;26430;48.818;9.244;2023-08-08T02:42:59;14.20;99.90
2447;DHT22;26430;48.818;9.244;2023-08-08T02:45:25;14.10;99.90
2447;DHT22;26430;48.818;9.244;2023-08-08T02:47:50;14.20;99.90
2447;DHT22;26430;48.818;9.244;2023-08-08T02:50:16;14.20;99.90
2447;DHT22;26430;48.818;9.244;2023-08-08T02:52:41;14.20;99.90
2447;DHT22;26430;48.818;9.244;2023-08-08T02:55:07;14.10;99.90
2447;DHT22;26430;48.818;9.244;2023-08-08T02:57:33;14.00;99.90
2447;DHT22;26430;48.818;9.244;2023-08-08T02:59:59;14.00;99.90
2447;DHT22;26430;48.818;9.244;2023-08-08T03:02:24;14.00;99.90
2447;DHT22;26430;48.818;9.244;2023-08-08T03:04:50;13.90;99.90
2447;DHT22;26430;48.818;9.244;2023-08-08T03:07:15;14.00;99.90
2447;DHT22;26430;48.818;9.244;2023-08-08T03:09:41;13.90;99.90
2447;DHT22;26430;48.818;9.244;2023-08-08T03:12:07;13.90;99.90
2447;DHT22;26430;48.818;9.244;2023-08-08T03:14:33;13.90;99.90
2447;DHT22;26430;48.818;9.244;2023-08-08T03:16:59;13.80;99.90
2447;DHT22;26430;48.818;9.244;2023-08-08T03:19:25;13.80;99.90
2447;DHT22;26430;48.818;9.244;2023-08-08T03:21:51;13.80;99.90
2447;DHT22;26430;48.818;9.244;2023-08-08T03:24:17;13.80;99.90
2447;DHT22;26430;48.818;9.244;2023-08-08T03:26:42;13.80;99.90
2447;DHT22;26430;48.818;9.244;2023-08-08T03:29:08;13.90;99.90
2447;DHT22;26430;48.818;9.244;2023-08-08T03:31:36;13.90;99.90
2447;DHT22;26430;48.818;9.244;2023-08-08T03:34:01;13.90;99.90
2447;DHT22;26430;48.818;9.244;2023-08-08T03:36:27;13.90;99.90
2447;DHT22;26430;48.818;9.244;2023-08-08T03:38:53;13.90;99.90
2447;DHT22;26430;48.818;9.244;2023-08-08T03:41:18;13.90;99.90
2447;DHT22;26430;48.818;9.244;2023-08-08T03:43:44;13.80;99.90
2447;DHT22;26430;48.818;9.244;2023-08-08T03:46:09;13.80;99.90
2447;DHT22;26430;48.818;9.244;2023-08-08T03:48:37;13.80;99.90
2447;DHT22;26430;48.818;9.244;2023-08-08T03:51:03;13.70;99.90
2447;DHT22;26430;48.818;9.244;2023-08-08T03:53:28;13.70;99.90
2447;DHT22;26430;48.818;9.244;2023-08-08T03:55:54;13.70;99.90
2447;DHT22;26430;48.818;9.244;2023-08-08T03:58:19;13.70;99.90
2447;DHT22;26430;48.818;9.244;2023-08-08T04:00:45;13.70;99.90
2447;DHT22;26430;48.818;9.244;2023-08-08T04:03:14;13.80;99.90
2447;DHT22;26430;48.818;9.244;2023-08-08T04:05:41;13.90;99.90
2447;DHT22;26430;48.818;9.244;2023-08-08T04:08:07;13.80;99.90
2447;DHT22;26430;48.818;9.244;2023-08-08T04:10:32;13.80;99.90
2447;DHT22;26430;48.818;9.244;2023-08-08T04:12:58;13.80;99.90
2447;DHT22;26430;48.818;9.244;2023-08-08T04:15:23;13.90;99.90
2447;DHT22;26430;48.818;9.244;2023-08-08T04:17:49;13.90;99.90
2447;DHT22;26430;48.818;9.244;2023-08-08T04:20:15;14.00;99.90
2447;DHT22;26430;48.818;9.244;2023-08-08T04:22:41;14.00;99.90
2447;DHT22;26430;48.818;9.244;2023-08-08T04:25:06;14.00;99.90
2447;DHT22;26430;48.818;9.244;2023-08-08T04:27:32;14.00;99.90
2447;DHT22;26430;48.818;9.244;2023-08-08T04:29:58;14.10;99.90
2447;DHT22;26430;48.818;9.244;2023-08-08T04:32:24;14.10;99.90
2447;DHT22;26430;48.818;9.244;2023-08-08T04:34:49;14.20;99.90
2447;DHT22;26430;48.818;9.244;2023-08-08T04:37:15;14.10;99.90
2447;DHT22;26430;48.818;9.244;2023-08-08T04:39:40;14.10;99.90
2447;DHT22;26430;48.818;9.244;2023-08-08T04:42:06;14.10;99.90
2447;DHT22;26430;48.818;9.244;2023-08-08T04:44:32;14.10;99.90
2447;DHT22;26430;48.818;9.244;2023-08-08T04:46:57;14.30;99.90
2447;DHT22;26430;48.818;9.244;2023-08-08T04:49:23;14.30;99.90
2447;DHT22;26430;48.818;9.244;2023-08-08T04:51:48;14.30;99.90
2447;DHT22;26430;48.818;9.244;2023-08-08T04:54:14;14.30;99.90
2447;DHT22;26430;48.818;9.244;2023-08-08T04:56:39;14.20;99.90
2447;DHT22;26430;48.818;9.244;2023-08-08T04:59:05;14.30;99.90
2447;DHT22;26430;48.818;9.244;2023-08-08T05:01:30;14.40;99.90
2447;DHT22;26430;48.818;9.244;2023-08-08T05:03:56;14.40;99.90
2447;DHT22;26430;48.818;9.244;2023-08-08T05:06:22;14.40;99.90
2447;DHT22;26430;48.818;9.244;2023-08-08T05:08:49;14.30;99.90
2447;DHT22;26430;48.818;9.244;2023-08-08T05:11:15;14.30;99.90
2447;DHT22;26430;48.818;9.244;2023-08-08T05:13:41;14.30;99.90
2447;DHT22;26430;48.818;9.244;2023-08-08T05:16:08;14.30;99.90
2447;DHT22;26430;48.818;9.244;2023-08-08T05:18:33;14.40;99.90
2447;DHT22;26430;48.818;9.244;2023-08-08T05:20:59;14.40;99.90
2447;DHT22;26430;48.818;9.244;2023-08-08T05:23:24;14.40;99.90
2447;DHT22;26430;48.818;9.244;2023-08-08T05:25:50;14.40;99.90
2447;DHT22;26430;48.818;9.244;2023-08-08T05:28:16;14.50;99.90
2447;DHT22;26430;48.818;9.244;2023-08-08T05:30:41;14.50;99.90
2447;DHT22;26430;48.818;9.244;2023-08-08T05:33:07;14.40;99.90
2447;DHT22;26430;48.818;9.244;2023-08-08T05:35:32;14.50;99.90
2447;DHT22;26430;48.818;9.244;2023-08-08T05:37:58;14.50;99.90
2447;DHT22;26430;48.818;9.244;2023-08-08T05:40:23;14.60;99.90
2447;DHT22;26430;48.818;9.244;2023-08-08T05:42:49;14.60;99.90
2447;DHT22;26430;48.818;9.244;2023-08-08T05:45:15;14.60;99.90
2447;DHT22;26430;48.818;9.244;2023-08-08T05:47:40;14.50;99.90
2447;DHT22;26430;48.818;9.244;2023-08-08T05:50:06;14.60;99.90
2447;DHT22;26430;48.818;9.244;2023-08-08T05:52:32;14.50;99.90
2447;DHT22;26430;48.818;9.244;2023-08-08T05:54:57;14.50;99.90
2447;DHT22;26430;48.818;9.244;2023-08-08T05:57:25;14.60;99.90
2447;DHT22;26430;48.818;9.244;2023-08-08T05:59:51;14.70;99.90
2447;DHT22;26430;48.818;9.244;2023-08-08T06:02:16;14.70;99.90
2447;DHT22;26430;48.818;9.244;2023-08-08T06:04:42;14.80;99.90
2447;DHT22;26430;48.818;9.244;2023-08-08T06:07:08;14.90;99.90
2447;DHT22;26430;48.818;9.244;2023-08-08T06:09:33;14.90;99.90
2447;DHT22;26430;48.818;9.244;2023-08-08T06:11:59;14.90;99.90
2447;DHT22;26430;48.818;9.244;2023-08-08T06:14:24;15.00;99.90
2447;DHT22;26430;48.818;9.244;2023-08-08T06:16:50;15.00;99.90
2447;DHT22;26430;48.818;9.244;2023-08-08T06:19:15;15.10;99.90
2447;DHT22;26430;48.818;9.244;2023-08-08T06:21:42;15.20;99.90
2447;DHT22;26430;48.818;9.244;2023-08-08T06:24:07;15.30;99.90
2447;DHT22;26430;48.818;9.244;2023-08-08T06:26:33;15.40;99.90
2447;DHT22;26430;48.818;9.244;2023-08-08T06:28:59;15.30;99.90
2447;DHT22;26430;48.818;9.244;2023-08-08T06:31:24;15.40;99.90
2447;DHT22;26430;48.818;9.244;2023-08-08T06:33:50;15.60;99.90
2447;DHT22;26430;48.818;9.244;2023-08-08T06:36:15;15.60;99.90
2447;DHT22;26430;48.818;9.244;2023-08-08T06:38:41;15.60;99.90
2447;DHT22;26430;48.818;9.244;2023-08-08T06:41:08;15.80;99.90
2447;DHT22;26430;48.818;9.244;2023-08-08T06:43:33;15.90;99.90
2447;DHT22;26430;48.818;9.244;2023-08-08T06:45:59;15.90;99.90
2447;DHT22;26430;48.818;9.244;2023-08-08T06:48:26;16.10;99.90
2447;DHT22;26430;48.818;9.244;2023-08-08T06:50:51;16.20;99.90
2447;DHT22;26430;48.818;9.244;2023-08-08T06:53:17;16.20;99.90
2447;DHT22;26430;48.818;9.244;2023-08-08T06:55:43;16.30;99.90
2447;DHT22;26430;48.818;9.244;2023-08-08T06:58:08;16.30;99.90
2447;DHT22;26430;48.818;9.244;2023-08-08T07:00:34;16.40;99.90
2447;DHT22;26430;48.818;9.244;2023-08-08T07:03:00;16.50;99.90
2447;DHT22;26430;48.818;9.244;2023-08-08T07:05:25;16.50;99.90
2447;DHT22;26430;48.818;9.244;2023-08-08T07:07:51;16.70;99.90
2447;DHT22;26430;48.818;9.244;2023-08-08T07:10:18;16.70;99.90
2447;DHT22;26430;48.818;9.244;2023-08-08T07:12:44;16.70;99.90
2447;DHT22;26430;48.818;9.244;2023-08-08T07:15:10;16.70;99.90
2447;DHT22;26430;48.818;9.244;2023-08-08T07:17:36;16.80;99.90
2447;DHT22;26430;48.818;9.244;2023-08-08T07:20:01;16.80;99.90
2447;DHT22;26430;48.818;9.244;2023-08-08T07:22:27;16.80;99.90
2447;DHT22;26430;48.818;9.244;2023-08-08T07:24:53;16.90;99.90
2447;DHT22;26430;48.818;9.244;2023-08-08T07:27:19;16.90;99.90
2447;DHT22;26430;48.818;9.244;2023-08-08T07:29:44;17.00;99.90
2447;DHT22;26430;48.818;9.244;2023-08-08T07:32:10;17.10;99.90
2447;DHT22;26430;48.818;9.244;2023-08-08T07:34:36;17.20;99.90
2447;DHT22;26430;48.818;9.244;2023-08-08T07:37:02;17.30;99.90
2447;DHT22;26430;48.818;9.244;2023-08-08T07:39:28;17.20;99.90
2447;DHT22;26430;48.818;9.244;2023-08-08T07:41:54;17.40;99.90
2447;DHT22;26430;48.818;9.244;2023-08-08T07:44:19;17.40;99.90
2447;DHT22;26430;48.818;9.244;2023-08-08T07:46:45;17.40;99.90
2447;DHT22;26430;48.818;9.244;2023-08-08T07:49:11;17.40;99.90
2447;DHT22;26430;48.818;9.244;2023-08-08T07:51:36;17.40;99.90
2447;DHT22;26430;48.818;9.244;2023-08-08T07:54:02;17.50;99.90
2447;DHT22;26430;48.818;9.244;2023-08-08T07:56:30;17.70;99.90
2447;DHT22;26430;48.818;9.244;2023-08-08T07:58:56;17.90;99.90
2447;DHT22;26430;48.818;9.244;2023-08-08T08:01:21;18.00;99.90
2447;DHT22;26430;48.818;9.244;2023-08-08T08:03:47;18.10;99.90
2447;DHT22;26430;48.818;9.244;2023-08-08T08:06:13;18.00;99.90
2447;DHT22;26430;48.818;9.244;2023-08-08T08:08:38;18.10;99.90
2447;DHT22;26430;48.818;9.244;2023-08-08T08:11:04;18.30;99.90
2447;DHT22;26430;48.818;9.244;2023-08-08T08:13:29;18.30;99.90
2447;DHT22;26430;48.818;9.244;2023-08-08T08:15:55;18.30;99.90
2447;DHT22;26430;48.818;9.244;2023-08-08T08:18:21;18.30;99.90
2447;DHT22;26430;48.818;9.244;2023-08-08T08:20:47;18.40;99.90
2447;DHT22;26430;48.818;9.244;2023-08-08T08:23:13;18.40;99.90
2447;DHT22;26430;48.818;9.244;2023-08-08T08:25:38;18.40;99.90
2447;DHT22;26430;48.818;9.244;2023-08-08T08:28:04;18.40;99.90
2447;DHT22;26430;48.818;9.244;2023-08-08T08:30:30;18.40;99.90
2447;DHT22;26430;48.818;9.244;2023-08-08T08:32:55;18.40;99.90
2447;DHT22;26430;48.818;9.244;2023-08-08T08:35:22;18.40;99.90
2447;DHT22;26430;48.818;9.244;2023-08-08T08:37:48;18.50;99.90
2447;DHT22;26430;48.818;9.244;2023-08-08T08:40:13;18.60;99.90
2447;DHT22;26430;48.818;9.244;2023-08-08T08:42:39;18.70;99.90
2447;DHT22;26430;48.818;9.244;2023-08-08T08:45:06;18.50;99.90
2447;DHT22;26430;48.818;9.244;2023-08-08T08:47:36;18.50;99.90
2447;DHT22;26430;48.818;9.244;2023-08-08T08:50:03;18.40;99.90
2447;DHT22;26430;48.818;9.244;2023-08-08T08:52:30;18.50;99.90
2447;DHT22;26430;48.818;9.244;2023-08-08T08:54:56;18.60;99.90
2447;DHT22;26430;48.818;9.244;2023-08-08T08:57:23;18.80;99.90
2447;DHT22;26430;48.818;9.244;2023-08-08T08:59:49;18.60;99.90
2447;DHT22;26430;48.818;9.244;2023-08-08T09:02:15;18.50;99.90
2447;DHT22;26430;48.818;9.244;2023-08-08T09:04:42;18.70;99.90
2447;DHT22;26430;48.818;9.244;2023-08-08T09:07:09;18.70;99.90
2447;DHT22;26430;48.818;9.244;2023-08-08T09:09:35;18.90;99.90
2447;DHT22;26430;48.818;9.244;2023-08-08T09:12:03;19.00;99.90
2447;DHT22;26430;48.818;9.244;2023-08-08T09:14:30;19.20;99.90
2447;DHT22;26430;48.818;9.244;2023-08-08T09:16:56;19.10;99.90
2447;DHT22;26430;48.818;9.244;2023-08-08T09:19:23;19.20;99.90
2447;DHT22;26430;48.818;9.244;2023-08-08T09:21:50;19.10;99.90
2447;DHT22;26430;48.818;9.244;2023-08-08T09:24:17;19.10;99.90
2447;DHT22;26430;48.818;9.244;2023-08-08T09:26:43;19.20;99.90
2447;DHT22;26430;48.818;9.244;2023-08-08T09:29:11;19.30;99.90
2447;DHT22;26430;48.818;9.244;2023-08-08T09:31:37;19.60;99.90
2447;DHT22;26430;48.818;9.244;2023-08-08T09:34:04;19.70;99.90
2447;DHT22;26430;48.818;9.244;2023-08-08T09:36:30;19.70;99.90
2447;DHT22;26430;48.818;9.244;2023-08-08T09:38:56;19.60;99.90
2447;DHT22;26430;48.818;9.244;2023-08-08T09:41:23;19.50;99.90
2447;DHT22;26430;48.818;9.244;2023-08-08T09:43:51;19.40;99.90
2447;DHT22;26430;48.818;9.244;2023-08-08T09:46:18;19.50;99.90
2447;DHT22;26430;48.818;9.244;2023-08-08T09:48:45;19.60;99.90
2447;DHT22;26430;48.818;9.244;2023-08-08T09:51:10;19.50;99.90
2447;DHT22;26430;48.818;9.244;2023-08-08T09:53:36;19.80;99.90
2447;DHT22;26430;48.818;9.244;2023-08-08T09:56:04;19.90;99.90
2447;DHT22;26430;48.818;9.244;2023-08-08T09:58:31;20.00;99.90
2447;DHT22;26430;48.818;9.244;2023-08-08T10:00:56;20.00;99.90
2447;DHT22;26430;48.818;9.244;2023-08-08T10:03:23;19.90;99.90
2447;DHT22;26430;48.818;9.244;2023-08-08T10:05:49;20.00;99.90
2447;DHT22;26430;48.818;9.244;2023-08-08T10:08:15;20.10;99.90
2447;DHT22;26430;48.818;9.244;2023-08-08T10:10:42;20.10;99.90
2447;DHT22;26430;48.818;9.244;2023-08-08T10:13:10;20.20;99.90
2447;DHT22;26430;48.818;9.244;2023-08-08T10:15:39;20.30;99.90
2447;DHT22;26430;48.818;9.244;2023-08-08T10:18:05;20.50;99.90
2447;DHT22;26430;48.818;9.244;2023-08-08T10:20:32;20.60;99.90
2447;DHT22;26430;48.818;9.244;2023-08-08T10:23:02;20.60;99.90
2447;DHT22;26430;48.818;9.244;2023-08-08T10:25:30;21.30;99.90
2447;DHT22;26430;48.818;9.244;2023-08-08T10:28:11;21.10;99.90
2447;DHT22;26430;48.818;9.244;2023-08-08T10:30:58;21.10;99.90
2447;DHT22;26430;48.818;9.244;2023-08-08T10:33:38;20.80;99.90
2447;DHT22;26430;48.818;9.244;2023-08-08T10:36:06;21.10;99.90
2447;DHT22;26430;48.818;9.244;2023-08-08T10:38:47;21.20;99.90
2447;DHT22;26430;48.818;9.244;2023-08-08T10:41:18;21.50;99.90
2447;DHT22;26430;48.818;9.244;2023-08-08T10:43:50;21.20;99.10
2447;DHT22;26430;48.818;9.244;2023-08-08T10:46:24;20.70;99.20
2447;DHT22;26430;48.818;9.244;2023-08-08T10:48:52;21.40;99.90
2447;DHT22;26430;48.818;9.244;2023-08-08T10:51:18;21.90;99.90
2447;DHT22;26430;48.818;9.244;2023-08-08T10:53:45;22.50;99.80
2447;DHT22;26430;48.818;9.244;2023-08-08T10:56:13;22.50;97.80
2447;DHT22;26430;48.818;9.244;2023-08-08T10:58:41;22.40;97.80
2447;DHT22;26430;48.818;9.244;2023-08-08T11:01:07;22.50;99.20
2447;DHT22;26430;48.818;9.244;2023-08-08T11:03:38;22.40;97.70
2447;DHT22;26430;48.818;9.244;2023-08-08T11:06:06;21.80;98.10
2447;DHT22;26430;48.818;9.244;2023-08-08T11:08:32;22.50;98.50
2447;DHT22;26430;48.818;9.244;2023-08-08T11:10:59;23.00;98.00
2447;DHT22;26430;48.818;9.244;2023-08-08T11:13:25;23.00;95.90
2447;DHT22;26430;48.818;9.244;2023-08-08T11:15:51;23.20;95.00
2447;DHT22;26430;48.818;9.244;2023-08-08T11:18:17;22.90;93.40
2447;DHT22;26430;48.818;9.244;2023-08-08T11:20:43;23.00;93.60
2447;DHT22;26430;48.818;9.244;2023-08-08T11:23:10;23.10;93.80
2447;DHT22;26430;48.818;9.244;2023-08-08T11:25:36;23.50;93.80
2447;DHT22;26430;48.818;9.244;2023-08-08T11:28:02;23.50;92.60
2447;DHT22;26430;48.818;9.244;2023-08-08T11:30:35;23.60;92.00
2447;DHT22;26430;48.818;9.244;2023-08-08T11:33:01;23.50;91.40
2447;DHT22;26430;48.818;9.244;2023-08-08T11:35:27;23.80;91.50
2447;DHT22;26430;48.818;9.244;2023-08-08T11:37:54;23.70;90.50
2447;DHT22;26430;48.818;9.244;2023-08-08T11:40:22;23.60;90.70
2447;DHT22;26430;48.818;9.244;2023-08-08T11:42:49;23.50;91.80
2447;DHT22;26430;48.818;9.244;2023-08-08T11:45:16;23.50;90.90
2447;DHT22;26430;48.818;9.244;2023-08-08T11:47:42;23.60;90.60
2447;DHT22;26430;48.818;9.244;2023-08-08T11:50:09;23.70;90.00
2447;DHT22;26430;48.818;9.244;2023-08-08T11:52:39;23.90;89.30
2447;DHT22;26430;48.818;9.244;2023-08-08T11:55:06;24.00;89.90
2447;DHT22;26430;48.818;9.244;2023-08-08T11:57:32;24.20;87.30
2447;DHT22;26430;48.818;9.244;2023-08-08T11:59:58;23.60;89.40
2447;DHT22;26430;48.818;9.244;2023-08-08T12:02:26;23.10;88.40
2447;DHT22;26430;48.818;9.244;2023-08-08T12:04:52;22.60;90.60
2447;DHT22;26430;48.818;9.244;2023-08-08T12:07:18;22.80;91.90
2447;DHT22;26430;48.818;9.244;2023-08-08T12:09:46;22.90;91.10
2447;DHT22;26430;48.818;9.244;2023-08-08T12:12:13;23.00;90.50
2447;DHT22;26430;48.818;9.244;2023-08-08T12:14:39;23.20;91.10
2447;DHT22;26430;48.818;9.244;2023-08-08T12:17:05;23.20;89.60
2447;DHT22;26430;48.818;9.244;2023-08-08T12:19:31;23.20;89.30
2447;DHT22;26430;48.818;9.244;2023-08-08T12:21:56;23.30;86.70
2447;DHT22;26430;48.818;9.244;2023-08-08T12:24:22;23.50;84.60
2447;DHT22;26430;48.818;9.244;2023-08-08T12:26:48;23.70;85.70
2447;DHT22;26430;48.818;9.244;2023-08-08T12:29:13;23.60;85.60
2447;DHT22;26430;48.818;9.244;2023-08-08T12:31:39;23.60;86.20
2447;DHT22;26430;48.818;9.244;2023-08-08T12:34:05;23.90;88.60
2447;DHT22;26430;48.818;9.244;2023-08-08T12:36:30;23.60;86.50
2447;DHT22;26430;48.818;9.244;2023-08-08T12:38:56;23.70;85.20
2447;DHT22;26430;48.818;9.244;2023-08-08T12:41:23;23.10;82.40
2447;DHT22;26430;48.818;9.244;2023-08-08T12:43:50;23.40;86.50
2447;DHT22;26430;48.818;9.244;2023-08-08T12:46:16;23.30;86.80
2447;DHT22;26430;48.818;9.244;2023-08-08T12:48:41;23.10;89.00
2447;DHT22;26430;48.818;9.244;2023-08-08T12:51:08;23.10;88.70
2447;DHT22;26430;48.818;9.244;2023-08-08T12:53:34;22.90;88.90
2447;DHT22;26430;48.818;9.244;2023-08-08T12:56:00;22.80;89.20
2447;DHT22;26430;48.818;9.244;2023-08-08T12:58:26;22.60;87.90
2447;DHT22;26430;48.818;9.244;2023-08-08T13:00:51;23.00;86.70
2447;DHT22;26430;48.818;9.244;2023-08-08T13:03:17;23.10;86.30
2447;DHT22;26430;48.818;9.244;2023-08-08T13:05:42;23.10;85.90
2447;DHT22;26430;48.818;9.244;2023-08-08T13:08:08;23.70;87.40
2447;DHT22;26430;48.818;9.244;2023-08-08T13:10:35;24.00;83.50
2447;DHT22;26430;48.818;9.244;2023-08-08T13:13:00;24.00;87.00
2447;DHT22;26430;48.818;9.244;2023-08-08T13:15:26;23.60;84.70
2447;DHT22;26430;48.818;9.244;2023-08-08T13:17:52;23.60;89.10
2447;DHT22;26430;48.818;9.244;2023-08-08T13:20:17;24.10;87.10
2447;DHT22;26430;48.818;9.244;2023-08-08T13:22:43;23.80;87.00
2447;DHT22;26430;48.818;9.244;2023-08-08T13:25:09;23.60;88.70
2447;DHT22;26430;48.818;9.244;2023-08-08T13:27:35;23.70;90.00
2447;DHT22;26430;48.818;9.244;2023-08-08T13:30:01;23.50;90.50
2447;DHT22;26430;48.818;9.244;2023-08-08T13:32:27;23.30;91.10
2447;DHT22;26430;48.818;9.244;2023-08-08T13:34:53;23.10;91.10
2447;DHT22;26430;48.818;9.244;2023-08-08T13:37:19;23.20;91.50
2447;DHT22;26430;48.818;9.244;2023-08-08T13:39:44;23.40;91.80
2447;DHT22;26430;48.818;9.244;2023-08-08T13:42:10;23.70;92.20
2447;DHT22;26430;48.818;9.244;2023-08-08T13:44:36;23.90;91.70
2447;DHT22;26430;48.818;9.244;2023-08-08T13:47:01;24.00;91.80
2447;DHT22;26430;48.818;9.244;2023-08-08T13:49:27;23.80;91.90
2447;DHT22;26430;48.818;9.244;2023-08-08T13:51:55;23.90;91.80
2447;DHT22;26430;48.818;9.244;2023-08-08T13:54:21;24.00;87.80
2447;DHT22;26430;48.818;9.244;2023-08-08T13:56:47;24.20;90.50
2447;DHT22;26430;48.818;9.244;2023-08-08T13:59:12;23.60;86.70
2447;DHT22;26430;48.818;9.244;2023-08-08T14:01:38;23.20;89.10
2447;DHT22;26430;48.818;9.244;2023-08-08T14:04:04;22.90;89.10
2447;DHT22;26430;48.818;9.244;2023-08-08T14:06:29;23.10;90.60
2447;DHT22;26430;48.818;9.244;2023-08-08T14:08:56;23.20;90.50
2447;DHT22;26430;48.818;9.244;2023-08-08T14:11:21;23.00;90.10
2447;DHT22;26430;48.818;9.244;2023-08-08T14:13:47;22.80;89.20
2447;DHT22;26430;48.818;9.244;2023-08-08T14:16:13;22.60;90.10
2447;DHT22;26430;48.818;9.244;2023-08-08T14:18:38;22.70;90.00
2447;DHT22;26430;48.818;9.244;2023-08-08T14:21:04;22.60;91.00
2447;DHT22;26430;48.818;9.244;2023-08-08T14:23:31;22.50;90.80
2447;DHT22;26430;48.818;9.244;2023-08-08T14:25:56;22.40;90.50
2447;DHT22;26430;48.818;9.244;2023-08-08T14:28:22;22.30;91.10
2447;DHT22;26430;48.818;9.244;2023-08-08T14:30:48;22.50;91.30
2447;DHT22;26430;48.818;9.244;2023-08-08T14:33:15;22.50;91.00
2447;DHT22;26430;48.818;9.244;2023-08-08T14:35:41;22.40;91.20
2447;DHT22;26430;48.818;9.244;2023-08-08T14:38:07;22.30;91.20
2447;DHT22;26430;48.818;9.244;2023-08-08T14:40:32;21.90;91.70
2447;DHT22;26430;48.818;9.244;2023-08-08T14:43:00;21.70;91.80
2447;DHT22;26430;48.818;9.244;2023-08-08T14:45:26;21.70;92.50
2447;DHT22;26430;48.818;9.244;2023-08-08T14:47:52;22.00;92.70
2447;DHT22;26430;48.818;9.244;2023-08-08T14:50:18;21.90;92.30
2447;DHT22;26430;48.818;9.244;2023-08-08T14:52:44;21.80;92.20
2447;DHT22;26430;48.818;9.244;2023-08-08T14:55:10;21.60;92.50
2447;DHT22;26430;48.818;9.244;2023-08-08T14:57:36;21.50;93.00
2447;DHT22;26430;48.818;9.244;2023-08-08T15:00:01;21.50;93.40
2447;DHT22;26430;48.818;9.244;2023-08-08T15:02:27;21.50;93.20
2447;DHT22;26430;48.818;9.244;2023-08-08T15:04:53;21.50;93.20
2447;DHT22;26430;48.818;9.244;2023-08-08T15:07:19;21.50;93.30
2447;DHT22;26430;48.818;9.244;2023-08-08T15:09:44;21.50;93.40
2447;DHT22;26430;48.818;9.244;2023-08-08T15:12:11;21.60;93.60
2447;DHT22;26430;48.818;9.244;2023-08-08T15:14:37;21.70;94.90
2447;DHT22;26430;48.818;9.244;2023-08-08T15:17:03;21.70;94.30
2447;DHT22;26430;48.818;9.244;2023-08-08T15:19:29;21.70;94.70
2447;DHT22;26430;48.818;9.244;2023-08-08T15:21:54;21.70;94.60
2447;DHT22;26430;48.818;9.244;2023-08-08T15:24:20;21.60;94.80
2447;DHT22;26430;48.818;9.244;2023-08-08T15:26:46;21.60;94.70
2447;DHT22;26430;48.818;9.244;2023-08-08T15:29:11;21.50;95.20
2447;DHT22;26430;48.818;9.244;2023-08-08T15:31:37;21.50;95.30
2447;DHT22;26430;48.818;9.244;2023-08-08T15:34:02;21.40;95.10
2447;DHT22;26430;48.818;9.244;2023-08-08T15:36:28;21.80;96.00
2447;DHT22;26430;48.818;9.244;2023-08-08T15:38:54;22.20;94.80